Time,TemperatureF,DewpointF,PressureIn,WindDirection,WindDirectionDegrees,WindSpeedMPH,WindSpeedGustMPH,Humidity,HourlyPrecipIn,Conditions,Clouds,dailyrainin,SoftwareType,DateUTC
2013-03-11 00:02:00,36.0,33.0,30.31,SSW,200,0.0,2.0,87,0.00,,,0.00,,2013-03-11 04:02:00,
2013-03-11 00:12:00,36.0,33.0,30.31,SSW,200,0.0,2.0,87,0.00,,,0.00,,2013-03-11 04:12:00,
2013-03-11 00:22:00,36.0,33.0,30.31,SE,142,2.0,3.0,87,0.00,,,0.00,,2013-03-11 04:22:00,
2013-03-11 00:32:00,36.0,33.0,30.30,South,170,2.0,4.0,87,0.00,,,0.00,,2013-03-11 04:32:00,
2013-03-11 00:43:00,36.0,33.0,30.30,South,170,2.0,4.0,87,0.00,,,0.00,,2013-03-11 04:43:00,
2013-03-11 00:52:00,36.0,33.0,30.29,SSE,147,3.0,6.0,87,0.00,,,0.00,,2013-03-11 04:52:00,
2013-03-11 01:03:00,36.0,33.0,30.29,SSE,153,2.0,9.0,87,0.00,,,0.00,,2013-03-11 05:03:00,
2013-03-11 01:12:00,36.0,33.0,30.29,SSE,153,2.0,9.0,87,0.00,,,0.00,,2013-03-11 05:12:00,
2013-03-11 01:22:00,36.0,33.0,30.30,SSW,208,4.0,8.0,87,0.00,,,0.00,,2013-03-11 05:22:00,
2013-03-11 01:32:00,36.0,33.0,30.29,SSE,150,3.0,7.0,87,0.00,,,0.00,,2013-03-11 05:32:00,
2013-03-11 01:43:00,36.0,33.0,30.29,SSE,150,3.0,7.0,87,0.00,,,0.00,,2013-03-11 05:43:00,
2013-03-11 01:52:00,36.0,33.0,30.30,SSE,150,4.0,7.0,87,0.00,,,0.00,,2013-03-11 05:52:00,
2013-03-11 02:02:00,36.0,33.0,30.32,SW,229,2.0,4.0,87,0.00,,,0.00,,2013-03-11 06:02:00,
2013-03-11 02:12:00,36.0,33.0,30.32,SW,229,2.0,4.0,87,0.00,,,0.00,,2013-03-11 06:12:00,
2013-03-11 02:22:00,36.0,33.0,30.32,WSW,239,2.0,3.0,87,0.00,,,0.00,,2013-03-11 06:22:00,
2013-03-11 02:32:00,36.0,33.0,30.32,SSE,165,0.0,3.0,87,0.00,,,0.00,,2013-03-11 06:32:00,
2013-03-11 02:42:00,36.0,33.0,30.32,SSE,165,0.0,3.0,87,0.00,,,0.00,,2013-03-11 06:42:00,
2013-03-11 02:52:00,35.0,32.0,30.31,SE,144,0.0,1.0,87,0.00,,,0.00,,2013-03-11 06:52:00,
2013-03-11 03:12:00,35.0,32.0,30.30,WSW,245,0.0,0.0,88,0.00,,,0.00,,2013-03-11 07:12:00,
2013-03-11 03:22:00,35.0,32.0,30.29,SSE,160,0.0,0.0,89,0.00,,,0.00,,2013-03-11 07:22:00,
2013-03-11 03:32:00,35.0,32.0,30.28,SSW,205,2.0,4.0,89,0.00,,,0.00,,2013-03-11 07:32:00,
2013-03-11 03:42:00,35.0,32.0,30.28,SSW,205,2.0,4.0,89,0.00,,,0.00,,2013-03-11 07:42:00,
2013-03-11 03:52:00,35.0,32.0,30.25,ESE,114,2.0,5.0,89,0.00,,,0.00,,2013-03-11 07:52:00,
2013-03-11 04:02:00,35.0,32.0,30.26,SSW,212,1.0,4.0,89,0.00,,,0.00,,2013-03-11 08:02:00,
2013-03-11 04:12:00,35.0,32.0,30.26,SSW,212,1.0,4.0,89,0.00,,,0.00,,2013-03-11 08:12:00,
2013-03-11 04:22:00,35.0,32.0,30.26,SW,221,2.0,5.0,89,0.00,,,0.00,,2013-03-11 08:22:00,
2013-03-11 04:32:00,35.0,32.0,30.26,SSE,153,3.0,4.0,89,0.00,,,0.00,,2013-03-11 08:32:00,
2013-03-11 04:42:00,35.0,32.0,30.26,SSE,153,3.0,4.0,89,0.00,,,0.00,,2013-03-11 08:42:00,
2013-03-11 04:52:00,35.0,32.0,30.27,SSE,154,4.0,6.0,89,0.00,,,0.00,,2013-03-11 08:52:00,
2013-03-11 05:02:00,35.0,32.0,30.26,SSE,158,3.0,5.0,89,0.00,,,0.00,,2013-03-11 09:02:00,
2013-03-11 05:12:00,35.0,32.0,30.26,SSE,158,3.0,5.0,89,0.00,,,0.00,,2013-03-11 09:12:00,
2013-03-11 05:23:00,35.0,32.0,30.26,WSW,238,5.0,7.0,89,0.00,,,0.00,,2013-03-11 09:23:00,
2013-03-11 05:32:00,35.0,32.0,30.25,SSE,162,4.0,8.0,89,0.00,,,0.00,,2013-03-11 09:32:00,
2013-03-11 05:42:00,35.0,32.0,30.25,SSE,162,4.0,8.0,89,0.00,,,0.00,,2013-03-11 09:42:00,
2013-03-11 05:53:00,35.0,32.0,30.25,SE,143,3.0,7.0,88,0.00,,,0.00,,2013-03-11 09:53:00,
2013-03-11 06:02:00,35.0,32.0,30.24,SSW,210,3.0,7.0,89,0.00,,,0.00,,2013-03-11 10:02:00,
2013-03-11 06:12:00,35.0,32.0,30.24,SSW,210,3.0,7.0,89,0.00,,,0.00,,2013-03-11 10:12:00,
2013-03-11 06:22:00,35.0,32.0,30.23,South,187,5.0,7.0,89,0.00,,,0.00,,2013-03-11 10:22:00,
2013-03-11 06:32:00,35.0,32.0,30.24,SSE,150,3.0,5.0,89,0.00,,,0.00,,2013-03-11 10:32:00,
2013-03-11 06:42:00,35.0,32.0,30.24,SSE,150,3.0,5.0,89,0.00,,,0.00,,2013-03-11 10:42:00,
2013-03-11 06:52:00,35.0,32.0,30.25,SSE,155,3.0,10.0,89,0.00,,,0.00,,2013-03-11 10:52:00,
2013-03-11 07:02:00,35.0,32.0,30.27,SSW,198,4.0,8.0,89,0.00,,,0.00,,2013-03-11 11:02:00,
2013-03-11 07:12:00,35.0,32.0,30.27,SSW,198,4.0,8.0,89,0.00,,,0.00,,2013-03-11 11:12:00,
2013-03-11 07:22:00,35.0,32.0,30.26,SSW,210,2.0,5.0,89,0.00,,,0.00,,2013-03-11 11:22:00,
2013-03-11 07:33:00,35.0,32.0,30.26,SE,127,3.0,7.0,89,0.00,,,0.00,,2013-03-11 11:33:00,
2013-03-11 07:42:00,35.0,32.0,30.26,SE,127,3.0,7.0,89,0.00,,,0.00,,2013-03-11 11:42:00,
2013-03-11 07:52:00,35.0,32.0,30.26,SE,146,4.0,6.0,89,0.00,,,0.00,,2013-03-11 11:52:00,
2013-03-11 08:02:00,35.0,32.0,30.25,SSE,162,3.0,6.0,89,0.00,,,0.00,,2013-03-11 12:02:00,
2013-03-11 08:12:00,35.0,32.0,30.25,SSE,162,3.0,6.0,89,0.00,,,0.00,,2013-03-11 12:12:00,
2013-03-11 08:22:00,35.0,32.0,30.25,SSE,166,3.0,6.0,89,0.00,,,0.00,,2013-03-11 12:22:00,
2013-03-11 08:32:00,36.0,33.0,30.25,SW,226,3.0,7.0,88,0.00,,,0.00,,2013-03-11 12:32:00,
2013-03-11 08:43:00,36.0,33.0,30.25,SW,226,3.0,7.0,88,0.00,,,0.00,,2013-03-11 12:43:00,
2013-03-11 08:52:00,36.0,33.0,30.25,SE,137,3.0,6.0,88,0.00,,,0.00,,2013-03-11 12:52:00,
2013-03-11 09:02:00,36.0,33.0,30.25,South,172,3.0,7.0,87,0.00,,,0.00,,2013-03-11 13:02:00,
2013-03-11 09:12:00,36.0,33.0,30.25,South,172,3.0,7.0,87,0.00,,,0.00,,2013-03-11 13:12:00,
2013-03-11 09:22:00,37.0,33.0,30.25,WSW,249,2.0,7.0,86,0.00,,,0.00,,2013-03-11 13:22:00,
2013-03-11 09:32:00,37.0,33.0,30.24,SSW,199,3.0,6.0,86,0.00,,,0.00,,2013-03-11 13:32:00,
2013-03-11 09:42:00,37.0,33.0,30.24,SSW,199,3.0,6.0,86,0.00,,,0.00,,2013-03-11 13:42:00,
2013-03-11 09:53:00,38.0,34.0,30.24,SSE,162,3.0,7.0,84,0.00,,,0.00,,2013-03-11 13:53:00,
2013-03-11 10:02:00,38.0,33.0,30.25,SSE,152,4.0,6.0,83,0.00,,,0.00,,2013-03-11 14:02:00,
2013-03-11 10:12:00,38.0,33.0,30.25,SSE,152,4.0,6.0,83,0.00,,,0.00,,2013-03-11 14:12:00,
2013-03-11 10:22:00,40.0,34.0,30.24,ESE,113,5.0,9.0,80,0.00,,,0.00,,2013-03-11 14:22:00,
2013-03-11 10:33:00,40.0,34.0,30.24,SSE,153,3.0,7.0,78,0.00,,,0.00,,2013-03-11 14:33:00,
2013-03-11 10:42:00,40.0,34.0,30.24,SSE,153,3.0,7.0,78,0.00,,,0.00,,2013-03-11 14:42:00,
2013-03-11 10:53:00,42.0,35.0,30.24,SW,218,6.0,10.0,75,0.00,,,0.00,,2013-03-11 14:53:00,
2013-03-11 11:02:00,42.0,34.0,30.24,West,280,4.0,10.0,74,0.00,,,0.00,,2013-03-11 15:02:00,
2013-03-11 11:13:00,42.0,34.0,30.24,West,280,4.0,10.0,74,0.00,,,0.00,,2013-03-11 15:13:00,
2013-03-11 11:23:00,43.0,34.0,30.24,WSW,253,3.0,9.0,71,0.00,,,0.00,,2013-03-11 15:23:00,
2013-03-11 11:32:00,44.0,34.0,30.23,SSE,163,3.0,10.0,69,0.00,,,0.00,,2013-03-11 15:32:00,
2013-03-11 11:42:00,44.0,34.0,30.23,SSE,163,3.0,10.0,69,0.00,,,0.00,,2013-03-11 15:42:00,
2013-03-11 11:53:00,45.0,35.0,30.24,SE,143,4.0,9.0,67,0.00,,,0.00,,2013-03-11 15:53:00,
2013-03-11 12:02:00,46.0,35.0,30.24,SE,133,3.0,9.0,64,0.00,,,0.00,,2013-03-11 16:02:00,
2013-03-11 12:13:00,46.0,35.0,30.24,SE,133,3.0,9.0,64,0.00,,,0.00,,2013-03-11 16:13:00,
2013-03-11 12:22:00,46.0,34.0,30.23,SW,229,3.0,8.0,63,0.00,,,0.00,,2013-03-11 16:22:00,
2013-03-11 12:32:00,47.0,35.0,30.23,West,267,3.0,7.0,62,0.00,,,0.00,,2013-03-11 16:32:00,
2013-03-11 12:43:00,47.0,35.0,30.23,West,267,3.0,7.0,62,0.00,,,0.00,,2013-03-11 16:43:00,
2013-03-11 12:52:00,47.0,34.0,30.23,SSE,167,4.0,7.0,61,0.00,,,0.00,,2013-03-11 16:52:00,
2013-03-11 13:02:00,48.0,35.0,30.22,SSW,193,6.0,10.0,60,0.00,,,0.00,,2013-03-11 17:02:00,
2013-03-11 13:16:00,48.0,35.0,30.22,SSW,193,6.0,10.0,60,0.00,,,0.00,,2013-03-11 17:16:00,
2013-03-11 13:26:00,49.0,36.0,30.22,SSE,158,1.0,7.0,60,0.00,,,0.00,,2013-03-11 17:26:00,
2013-03-11 13:36:00,50.0,35.0,30.21,SE,128,4.0,8.0,57,0.00,,,0.00,,2013-03-11 17:36:00,
2013-03-11 13:42:00,50.0,35.0,30.21,SE,128,4.0,8.0,57,0.00,,,0.00,,2013-03-11 17:42:00,
2013-03-11 13:52:00,51.0,36.0,30.20,SW,218,4.0,7.0,56,0.00,,,0.00,,2013-03-11 17:52:00,
2013-03-11 14:02:00,51.0,35.0,30.20,South,185,6.0,10.0,55,0.00,,,0.00,,2013-03-11 18:02:00,
2013-03-11 14:12:00,51.0,35.0,30.20,South,185,6.0,10.0,55,0.00,,,0.00,,2013-03-11 18:12:00,
2013-03-11 14:23:00,51.0,38.0,30.19,SSW,193,2.0,8.0,60,0.00,,,0.00,,2013-03-11 18:23:00,
2013-03-11 14:32:00,50.0,37.0,30.19,SE,128,6.0,9.0,61,0.00,,,0.00,,2013-03-11 18:32:00,
2013-03-11 14:42:00,50.0,37.0,30.19,SE,128,6.0,9.0,61,0.00,,,0.00,,2013-03-11 18:42:00,
2013-03-11 14:52:00,49.0,38.0,30.17,SSE,148,2.0,10.0,65,0.00,,,0.00,,2013-03-11 18:52:00,
2013-03-11 15:02:00,49.0,38.0,30.16,SSE,157,3.0,8.0,66,0.00,,,0.00,,2013-03-11 19:02:00,
2013-03-11 15:12:00,49.0,38.0,30.16,SSE,157,3.0,8.0,66,0.00,,,0.00,,2013-03-11 19:12:00,
2013-03-11 15:23:00,49.0,38.0,30.16,SSW,203,5.0,10.0,65,0.00,,,0.00,,2013-03-11 19:23:00,
2013-03-11 15:33:00,49.0,38.0,30.16,ENE,75,3.0,8.0,66,0.00,,,0.00,,2013-03-11 19:33:00,
2013-03-11 15:42:00,49.0,38.0,30.16,ENE,75,3.0,8.0,66,0.00,,,0.00,,2013-03-11 19:42:00,
2013-03-11 15:52:00,49.0,38.0,30.16,SSE,159,4.0,9.0,66,0.00,,,0.00,,2013-03-11 19:52:00,
2013-03-11 16:02:00,49.0,39.0,30.16,SE,124,3.0,11.0,67,0.00,,,0.00,,2013-03-11 20:02:00,
2013-03-11 16:12:00,49.0,39.0,30.16,SE,124,3.0,11.0,67,0.00,,,0.00,,2013-03-11 20:12:00,
2013-03-11 16:22:00,49.0,39.0,30.16,SW,222,5.0,10.0,67,0.00,,,0.00,,2013-03-11 20:22:00,
2013-03-11 16:32:00,49.0,39.0,30.16,SW,218,7.0,10.0,68,0.00,,,0.00,,2013-03-11 20:32:00,
2013-03-11 16:43:00,49.0,39.0,30.16,SW,218,7.0,10.0,68,0.00,,,0.00,,2013-03-11 20:43:00,
2013-03-11 16:53:00,49.0,39.0,30.15,SW,219,2.0,7.0,69,0.00,,,0.00,,2013-03-11 20:53:00,
2013-03-11 17:03:00,48.0,39.0,30.15,SSE,150,2.0,5.0,70,0.00,,,0.00,,2013-03-11 21:03:00,
2013-03-11 17:13:00,48.0,39.0,30.15,SSE,150,2.0,5.0,70,0.00,,,0.00,,2013-03-11 21:13:00,
2013-03-11 17:22:00,48.0,39.0,30.14,SSE,153,2.0,7.0,71,0.00,,,0.00,,2013-03-11 21:22:00,
2013-03-11 17:32:00,48.0,39.0,30.15,SSE,166,4.0,8.0,72,0.00,,,0.00,,2013-03-11 21:32:00,
2013-03-11 17:44:00,48.0,39.0,30.15,SSE,166,4.0,8.0,72,0.00,,,0.00,,2013-03-11 21:44:00,
2013-03-11 17:52:00,48.0,39.0,30.15,SSE,150,2.0,7.0,72,0.00,,,0.00,,2013-03-11 21:52:00,
2013-03-11 18:03:00,48.0,40.0,30.15,SW,224,3.0,9.0,73,0.00,,,0.00,,2013-03-11 22:03:00,
2013-03-11 18:12:00,48.0,40.0,30.15,SW,224,3.0,9.0,73,0.00,,,0.00,,2013-03-11 22:12:00,
2013-03-11 18:22:00,48.0,40.0,30.14,SE,139,2.0,5.0,74,0.00,,,0.00,,2013-03-11 22:22:00,
2013-03-11 18:32:00,47.0,39.0,30.14,SE,142,2.0,7.0,75,0.00,,,0.00,,2013-03-11 22:32:00,
2013-03-11 18:43:00,47.0,39.0,30.14,SE,142,2.0,7.0,75,0.00,,,0.00,,2013-03-11 22:43:00,
2013-03-11 18:52:00,47.0,39.0,30.14,SE,134,2.0,6.0,75,0.00,,,0.00,,2013-03-11 22:52:00,
2013-03-11 19:03:00,47.0,39.0,30.14,South,179,4.0,7.0,75,0.00,,,0.00,,2013-03-11 23:03:00,
2013-03-11 19:12:00,47.0,39.0,30.14,South,179,4.0,7.0,75,0.00,,,0.00,,2013-03-11 23:12:00,
2013-03-11 19:22:00,46.0,39.0,30.14,SSE,160,5.0,10.0,75,0.00,,,0.00,,2013-03-11 23:22:00,
2013-03-11 19:32:00,45.0,39.0,30.15,South,173,5.0,12.0,79,0.00,,,0.00,,2013-03-11 23:32:00,
2013-03-11 19:43:00,45.0,39.0,30.15,South,173,5.0,12.0,79,0.00,,,0.00,,2013-03-11 23:43:00,
2013-03-11 19:52:00,45.0,39.0,30.15,WSW,245,4.0,11.0,80,0.00,,,0.00,,2013-03-11 23:52:00,
2013-03-11 20:02:00,44.0,39.0,30.14,SSE,154,5.0,9.0,82,0.00,,,0.00,,2013-03-12 00:02:00,
2013-03-11 20:12:00,44.0,39.0,30.14,SSE,154,5.0,9.0,82,0.00,,,0.00,,2013-03-12 00:12:00,
2013-03-11 20:23:00,44.0,39.0,30.15,SSE,160,5.0,8.0,83,0.00,,,0.00,,2013-03-12 00:23:00,
2013-03-11 20:33:00,44.0,39.0,30.15,SSE,158,4.0,10.0,84,0.00,,,0.00,,2013-03-12 00:33:00,
2013-03-11 20:43:00,44.0,39.0,30.15,SSE,158,4.0,10.0,84,0.00,,,0.00,,2013-03-12 00:43:00,
2013-03-11 20:53:00,44.0,40.0,30.16,SE,139,4.0,8.0,85,0.00,,,0.00,,2013-03-12 00:53:00,
2013-03-11 21:02:00,44.0,40.0,30.15,SSE,158,4.0,8.0,86,0.00,,,0.00,,2013-03-12 01:02:00,
2013-03-11 21:12:00,44.0,40.0,30.15,SSE,158,4.0,8.0,86,0.00,,,0.00,,2013-03-12 01:12:00,
2013-03-11 21:22:00,44.0,40.0,30.15,SSW,200,4.0,7.0,87,0.00,,,0.00,,2013-03-12 01:22:00,
2013-03-11 21:33:00,44.0,40.0,30.15,SSW,193,3.0,9.0,87,0.00,,,0.00,,2013-03-12 01:33:00,
2013-03-11 21:42:00,44.0,40.0,30.15,SSW,193,3.0,9.0,87,0.00,,,0.00,,2013-03-12 01:42:00,
2013-03-11 21:52:00,43.0,39.0,30.15,SE,124,3.0,9.0,87,0.00,,,0.00,,2013-03-12 01:52:00,
2013-03-11 22:02:00,43.0,40.0,30.14,SE,137,4.0,12.0,88,0.00,,,0.00,,2013-03-12 02:02:00,
2013-03-11 22:12:00,43.0,40.0,30.14,SE,137,4.0,12.0,88,0.00,,,0.00,,2013-03-12 02:12:00,
2013-03-11 22:22:00,43.0,40.0,30.14,SW,214,3.0,9.0,89,0.00,,,0.00,,2013-03-12 02:22:00,
2013-03-11 22:32:00,43.0,40.0,30.14,SSE,155,4.0,8.0,89,0.00,,,0.00,,2013-03-12 02:32:00,
2013-03-11 22:42:00,43.0,40.0,30.14,SSE,155,4.0,8.0,89,0.00,,,0.00,,2013-03-12 02:42:00,
2013-03-11 22:52:00,43.0,40.0,30.14,SSE,160,3.0,7.0,89,0.00,,,0.00,,2013-03-12 02:52:00,
2013-03-11 23:02:00,43.0,40.0,30.14,SSW,212,4.0,7.0,90,0.00,,,0.00,,2013-03-12 03:02:00,
2013-03-11 23:12:00,43.0,40.0,30.14,SSW,212,4.0,7.0,90,0.00,,,0.00,,2013-03-12 03:12:00,
2013-03-11 23:22:00,43.0,40.0,30.14,SE,144,1.0,5.0,90,0.00,,,0.00,,2013-03-12 03:22:00,
2013-03-11 23:32:00,42.0,39.0,30.14,South,173,3.0,6.0,90,0.00,,,0.00,,2013-03-12 03:32:00,
2013-03-11 23:42:00,42.0,39.0,30.14,South,173,3.0,6.0,90,0.00,,,0.00,,2013-03-12 03:42:00,
2013-03-11 23:53:00,42.0,40.0,30.14,SE,132,2.0,5.0,91,0.00,,,0.00,,2013-03-12 03:53:00,